Impacts TAF Board
For situational awareness. Not to be used for flight planning purposes.
IDs:

KLUF - Phoenix/Luke AFB, AZ, US

Issued at 2000 UTC 01 Feb 2023
Updated at 2309 UTC 01 Feb 2023
Potential Impact None Slight Moderate High
Time2255Z 02/00Z 02/01Z 02/02Z 02/03Z 02/04Z 02/05Z 02/06Z 02/07Z 02/08Z 02/09Z 02/10Z 02/11Z 02/12Z>>
Type OBS PRVL PRVL PRVL PRVL PRVL PRVL PRVL PRVL PRVL PRVL PRVL PRVL PRVL
VIS 10 >6 >6 >6 >6 >6 >6 >6 >6 >6 >6 >6 >6 >6
CIG -- -- -- -- -- -- -- -- -- -- -- -- -- --
Cover CLR SKC SKC SKC SKC SKC SKC SKC SKC SKC SKC SKC SKC SKC
FltCat VFR VFR VFR VFR VFR VFR VFR VFR VFR VFR VFR VFR VFR VFR
WX -- -- -- -- -- -- -- -- -- -- -- -- -- --
WDir 240 VRB VRB VRB VRB VRB VRB VRB VRB VRB VRB VRB VRB VRB
WSpd 4 6 6 6 6 6 6 6 6 6 6 6 6 6
WGst -- -- -- -- -- -- -- -- -- -- -- -- -- --
WSHgt -- -- -- -- -- -- -- -- -- -- -- -- -- --
WSDir -- -- -- -- -- -- -- -- -- -- -- -- -- --
WSSpd -- -- -- -- -- -- -- -- -- -- -- -- -- --
R03/21
XWnd 1 VRB VRB VRB VRB VRB VRB VRB VRB VRB VRB VRB VRB VRB
HWnd -4 VRB VRB VRB VRB VRB VRB VRB VRB VRB VRB VRB VRB VRB

NOTE: LAMP data beyond the time of the TAF data is denoted as LAMP in Type and colored magenta.

Raw TAF
TAF KLUF 012000Z 0120/0302 VRB06KT 9999 SKC QNH3004INS TX20/0123Z TN07/0213Z

Raw METAR
KLUF 012255Z AUTO 24004KT 10SM CLR 19/M03 A3003 RMK AO2 SLP168 T01921030 $
KLUF 012155Z AUTO 24005KT 10SM CLR 18/M03 A3003 RMK AO2 SLP168 T01831032 $
KLUF 012055Z AUTO 29003KT 10SM CLR 18/M02 A3003 RMK AO2 SLP168 T01821016 57024 $

METAR Board
Radar Display
Forecast Discussion

For situational awareness. Not to be used for flight planning purposes.